Time;durP1;ratioP1;P1;durP2;ratioP2;P2;SDS_P1;SDS_P2;PMS_P1;PMS_P2;Temp;Humidity;BMP_temperature;BMP_pressure;BME280_temperature;BME280_humidity;BME280_pressure;Samples;Min_cycle;Max_cycle;Signal;HPM_P1;HPM_P2
2023/01/23 00:00:17;;;;;;;23.30;14.17;;;;;;;0.91;100.00;102469.19;696894;28;1158;-61
2023/01/23 00:00:40;;;;;;;23.90;14.48;;;;;;;0.92;100.00;102465.81;696835;28;1110;-60
2023/01/23 00:01:07;;;;;;;22.67;14.35;;;;;;;0.99;100.00;102465.41;695130;28;4686;-60
2023/01/23 00:01:30;;;;;;;23.27;14.50;;;;;;;1.07;100.00;102467.59;696804;28;1170;-61
2023/01/23 00:01:51;;;;;;;23.27;14.73;;;;;;;1.12;100.00;102476.47;697005;28;1229;-62
2023/01/23 00:02:11;;;;;;;23.10;14.27;;;;;;;1.11;100.00;102469.53;698319;28;1114;-62
2023/01/23 00:02:32;;;;;;;22.50;14.68;;;;;;;1.12;100.00;102474.81;700365;28;1083;-60
2023/01/23 00:02:52;;;;;;;21.53;14.47;;;;;;;1.10;100.00;102465.22;699920;28;1271;-61
2023/01/23 00:03:12;;;;;;;21.53;14.20;;;;;;;1.05;100.00;102476.91;699718;28;1349;-60
2023/01/23 00:03:33;;;;;;;22.33;14.70;;;;;;;1.01;100.00;102469.00;699803;28;1325;-62
2023/01/23 00:03:54;;;;;;;21.75;14.20;;;;;;;1.07;100.00;102467.59;699752;28;4604;-60
2023/01/23 00:04:15;;;;;;;21.65;13.95;;;;;;;1.13;100.00;102470.53;699009;28;1158;-61
2023/01/23 00:04:36;;;;;;;21.45;14.27;;;;;;;1.19;100.00;102473.50;698595;28;1151;-60
2023/01/23 00:04:56;;;;;;;21.70;14.20;;;;;;;1.19;100.00;102470.91;696125;28;1333;-60
2023/01/23 00:05:17;;;;;;;22.73;14.67;;;;;;;1.22;100.00;102476.28;697363;28;1284;-61
2023/01/23 00:05:37;;;;;;;21.73;14.43;;;;;;;1.31;100.00;102470.81;697217;28;1218;-60
2023/01/23 00:06:00;;;;;;;21.05;13.77;;;;;;;1.26;100.00;102472.19;693546;28;2143;-61
2023/01/23 00:06:20;;;;;;;22.15;14.05;;;;;;;1.18;100.00;102469.16;697149;28;1292;-60
2023/01/23 00:06:42;;;;;;;21.13;13.63;;;;;;;1.13;100.00;102467.97;697006;28;4465;-61
2023/01/23 00:07:02;;;;;;;20.40;13.80;;;;;;;1.09;100.00;102469.44;699733;28;1078;-60
2023/01/23 00:07:23;;;;;;;21.23;14.25;;;;;;;1.15;100.00;102471.53;696247;28;1316;-60
2023/01/23 00:07:43;;;;;;;20.13;13.97;;;;;;;1.20;100.00;102470.13;694755;28;1337;-61
2023/01/23 00:08:04;;;;;;;20.92;14.15;;;;;;;1.16;100.00;102468.16;694580;28;1269;-60
2023/01/23 00:08:25;;;;;;;21.17;14.20;;;;;;;1.21;100.00;102468.47;693400;28;1099;-60
2023/01/23 00:08:46;;;;;;;22.13;14.52;;;;;;;1.22;100.00;102471.13;694220;28;1436;-60
2023/01/23 00:09:07;;;;;;;21.48;14.07;;;;;;;1.19;100.00;102470.91;693940;28;1178;-60
2023/01/23 00:09:27;;;;;;;21.10;14.30;;;;;;;1.19;100.00;102470.91;697609;28;1404;-61
2023/01/23 00:09:47;;;;;;;23.03;14.43;;;;;;;1.21;100.00;102471.03;698948;28;4449;-60
2023/01/23 00:10:09;;;;;;;22.70;14.40;;;;;;;1.23;100.00;102469.44;694035;28;1368;-61
2023/01/23 00:10:29;;;;;;;22.13;13.98;;;;;;;1.30;100.00;102472.50;694432;28;1527;-62
2023/01/23 00:10:50;;;;;;;22.17;13.73;;;;;;;1.27;100.00;102467.13;694144;28;1209;-62
2023/01/23 00:11:16;;;;;;;21.25;13.70;;;;;;;1.23;100.00;102466.84;693410;28;1166;-61
2023/01/23 00:11:37;;;;;;;21.00;13.77;;;;;;;1.18;100.00;102471.75;693744;28;1218;-62
2023/01/23 00:11:57;;;;;;;21.57;13.87;;;;;;;1.19;100.00;102469.25;696677;28;1230;-60
2023/01/23 00:12:17;;;;;;;21.10;14.02;;;;;;;1.19;100.00;102471.81;699858;28;1222;-60
2023/01/23 00:12:42;;;;;;;20.37;13.53;;;;;;;1.16;100.00;102473.31;699407;28;1303;-61
2023/01/23 00:13:02;;;;;;;21.58;14.02;;;;;;;1.12;100.00;102473.91;698692;28;4712;-60
2023/01/23 00:13:23;;;;;;;20.67;13.80;;;;;;;1.11;100.00;102461.81;696622;28;1289;-62
2023/01/23 00:13:44;;;;;;;21.90;14.25;;;;;;;1.21;100.00;102473.63;695513;28;1226;-59
2023/01/23 00:14:04;;;;;;;23.15;15.20;;;;;;;1.29;100.00;102473.28;696473;28;1193;-60
2023/01/23 00:14:25;;;;;;;22.70;15.07;;;;;;;1.35;100.00;102470.19;696295;28;1440;-62
2023/01/23 00:14:45;;;;;;;22.45;14.48;;;;;;;1.27;100.00;102480.00;695973;28;1149;-59
2023/01/23 00:15:06;;;;;;;20.33;14.13;;;;;;;1.27;100.00;102474.88;694628;28;1513;-60
2023/01/23 00:15:27;;;;;;;21.63;14.18;;;;;;;1.28;100.00;102476.66;697325;28;1472;-62
2023/01/23 00:15:47;;;;;;;22.77;14.95;;;;;;;1.24;100.00;102472.09;691202;28;4360;-60
2023/01/23 00:16:12;;;;;;;21.83;14.15;;;;;;;1.26;100.00;102470.53;692648;28;1259;-61
2023/01/23 00:16:33;;;;;;;22.35;14.40;;;;;;;1.27;100.00;102479.13;691989;28;1270;-60
2023/01/23 00:16:53;;;;;;;24.10;14.50;;;;;;;1.21;100.00;102474.50;692134;28;1259;-60
2023/01/23 00:17:13;;;;;;;23.63;14.75;;;;;;;1.16;100.00;102473.31;695020;28;1306;-62
2023/01/23 00:17:34;;;;;;;23.93;14.27;;;;;;;1.12;100.00;102474.81;695566;28;1190;-60
2023/01/23 00:17:54;;;;;;;22.10;14.18;;;;;;;1.06;100.00;102471.84;700627;28;1237;-60
2023/01/23 00:18:15;;;;;;;22.37;14.93;;;;;;;1.01;100.00;102473.22;696971;28;1402;-61
2023/01/23 00:18:35;;;;;;;22.83;14.90;;;;;;;1.00;100.00;102474.03;696557;28;1139;-61
2023/01/23 00:18:56;;;;;;;22.10;14.03;;;;;;;0.98;100.00;102473.94;693187;28;4286;-60
2023/01/23 00:19:17;;;;;;;21.63;14.13;;;;;;;1.05;100.00;102475.19;691652;28;1143;-61
2023/01/23 00:19:37;;;;;;;22.30;14.35;;;;;;;1.03;100.00;102479.38;692129;28;1203;-61
2023/01/23 00:19:58;;;;;;;22.00;15.03;;;;;;;1.02;100.00;102473.34;691256;28;3802;-61
2023/01/23 00:20:22;;;;;;;23.05;15.20;;;;;;;0.99;100.00;102475.72;689800;28;1290;-61
2023/01/23 00:20:42;;;;;;;22.33;14.23;;;;;;;0.94;100.00;102484.84;692424;28;1357;-61
2023/01/23 00:21:05;;;;;;;22.83;14.18;;;;;;;0.91;100.00;102478.59;691679;28;1969;-62
2023/01/23 00:21:27;;;;;;;22.70;15.05;;;;;;;0.88;100.00;102484.44;694180;28;1453;-61
2023/01/23 00:21:50;;;;;;;22.08;14.88;;;;;;;0.85;100.00;102474.84;695518;28;4449;-62
2023/01/23 00:22:10;;;;;;;23.58;14.77;;;;;;;0.84;100.00;102477.31;697341;28;1194;-60
2023/01/23 00:22:31;;;;;;;22.85;15.00;;;;;;;0.83;100.00;102475.53;695344;28;1143;-62
2023/01/23 00:22:51;;;;;;;22.37;14.93;;;;;;;0.82;100.00;102479.78;696643;28;1253;-60
2023/01/23 00:23:11;;;;;;;24.20;14.67;;;;;;;0.80;100.00;102475.34;696417;28;1231;-60
2023/01/23 00:23:33;;;;;;;23.63;14.60;;;;;;;0.79;100.00;102479.59;697660;28;1254;-61
2023/01/23 00:23:56;;;;;;;22.77;14.60;;;;;;;0.76;100.00;102471.69;697968;28;1277;-63
2023/01/23 00:24:16;;;;;;;23.63;14.75;;;;;;;0.75;100.00;102479.28;698233;28;1134;-61
2023/01/23 00:24:36;;;;;;;24.17;14.90;;;;;;;0.81;100.00;102477.13;700612;28;1288;-61
2023/01/23 00:24:57;;;;;;;24.38;15.30;;;;;;;0.84;100.00;102472.16;696389;28;4239;-60
2023/01/23 00:25:17;;;;;;;25.37;15.33;;;;;;;0.81;100.00;102467.69;696993;28;1412;-60
2023/01/23 00:25:38;;;;;;;23.17;14.88;;;;;;;0.78;100.00;102466.63;697432;28;1317;-60
2023/01/23 00:26:06;;;;;;;23.20;15.07;;;;;;;0.77;100.00;102476.03;697122;28;1264;-61
2023/01/23 00:26:29;;;;;;;24.17;15.43;;;;;;;0.76;100.00;102473.34;697868;28;1315;-62
2023/01/23 00:26:49;;;;;;;23.95;15.48;;;;;;;0.75;100.00;102475.06;699474;28;1545;-60
2023/01/23 00:27:10;;;;;;;23.17;15.00;;;;;;;0.76;100.00;102478.50;695841;28;1375;-63
2023/01/23 00:27:31;;;;;;;22.30;14.77;;;;;;;0.76;100.00;102473.34;697165;28;1302;-60
2023/01/23 00:27:52;;;;;;;23.55;15.65;;;;;;;0.75;100.00;102475.06;697473;28;4519;-60
2023/01/23 00:28:12;;;;;;;23.00;15.40;;;;;;;0.74;100.00;102477.53;697328;28;1107;-61
2023/01/23 00:28:33;;;;;;;23.57;16.20;;;;;;;0.74;100.00;102477.53;695374;28;1111;-61
2023/01/23 00:28:55;;;;;;;23.33;15.65;;;;;;;0.74;100.00;102468.09;696026;28;1241;-61
2023/01/23 00:29:15;;;;;;;24.10;15.10;;;;;;;0.73;100.00;102470.59;696839;28;1130;-60
2023/01/23 00:29:36;;;;;;;24.43;15.07;;;;;;;0.73;100.00;102470.59;697615;28;1454;-60
2023/01/23 00:29:56;;;;;;;23.53;14.77;;;;;;;0.73;100.00;102473.16;695092;28;1361;-62
2023/01/23 00:30:16;;;;;;;23.47;14.53;;;;;;;0.75;100.00;102481.84;693245;28;1128;-61
2023/01/23 00:30:37;;;;;;;23.20;15.23;;;;;;;0.75;100.00;102477.63;694925;28;1140;-60
2023/01/23 00:31:23;;;;;;;23.57;15.33;;;;;;;0.73;100.00;102479.19;693530;28;4582;-61
2023/01/23 00:31:44;;;;;;;23.42;15.00;;;;;;;0.88;100.00;102479.28;690910;28;1484;-61
2023/01/23 00:32:04;;;;;;;23.03;14.70;;;;;;;0.96;100.00;102467.78;697668;28;1245;-61
2023/01/23 00:32:24;;;;;;;23.42;14.98;;;;;;;0.96;100.00;102466.91;700735;28;1117;-61
2023/01/23 00:32:45;;;;;;;22.83;14.80;;;;;;;0.94;100.00;102469.41;697269;28;1043;-61
2023/01/23 00:33:05;;;;;;;23.05;14.65;;;;;;;0.91;100.00;102474.31;697733;28;1094;-61
2023/01/23 00:33:25;;;;;;;24.17;15.13;;;;;;;0.90;100.00;102467.41;694305;28;1286;-60
2023/01/23 00:33:47;;;;;;;24.15;15.13;;;;;;;0.94;100.00;102477.13;690936;28;4385;-60
2023/01/23 00:34:11;;;;;;;23.30;15.10;;;;;;;0.90;100.00;102471.66;689632;28;1360;-61
2023/01/23 00:34:32;;;;;;;22.63;15.07;;;;;;;0.89;100.00;102477.59;687773;28;1227;-61
2023/01/23 00:34:52;;;;;;;23.13;14.77;;;;;;;0.85;100.00;102472.25;690031;28;1410;-60
2023/01/23 00:35:13;;;;;;;23.83;15.10;;;;;;;0.83;100.00;102471.28;689941;28;1331;-59
2023/01/23 00:35:34;;;;;;;23.50;15.30;;;;;;;0.83;100.00;102475.53;691264;28;1127;-60
2023/01/23 00:35:55;;;;;;;23.67;15.15;;;;;;;0.84;100.00;102479.88;693011;28;1080;-61
2023/01/23 00:36:15;;;;;;;21.93;14.30;;;;;;;0.92;100.00;102480.38;695065;28;1092;-60
2023/01/23 00:36:38;;;;;;;22.53;14.57;;;;;;;0.91;100.00;102476.91;700502;28;1083;-61
2023/01/23 00:36:58;;;;;;;22.40;14.45;;;;;;;0.91;100.00;102476.03;699330;28;4275;-62
2023/01/23 00:37:19;;;;;;;24.00;14.97;;;;;;;0.88;100.00;102473.25;700225;28;1167;-63
2023/01/23 00:37:39;;;;;;;23.67;15.05;;;;;;;0.86;100.00;102470.59;696433;28;1191;-60
2023/01/23 00:38:00;;;;;;;23.23;15.03;;;;;;;0.85;100.00;102473.94;694642;28;1094;-61
2023/01/23 00:38:20;;;;;;;22.58;14.90;;;;;;;0.80;100.00;102471.09;695411;28;1146;-61
2023/01/23 00:38:40;;;;;;;23.13;14.83;;;;;;;0.87;100.00;102474.94;695432;28;1297;-61
2023/01/23 00:39:05;;;;;;;23.05;15.00;;;;;;;0.87;100.00;102474.03;694875;28;1138;-60
2023/01/23 00:39:25;;;;;;;25.27;15.88;;;;;;;0.87;100.00;102477.50;694975;28;1047;-61
2023/01/23 00:39:49;;;;;;;23.75;15.23;;;;;;;0.84;100.00;102472.16;698038;28;4340;-61
2023/01/23 00:40:10;;;;;;;22.00;14.68;;;;;;;0.83;100.00;102476.44;696337;28;1383;-60
2023/01/23 00:40:32;;;;;;;22.48;14.85;;;;;;;0.79;100.00;102476.13;695183;28;1221;-61
2023/01/23 00:40:54;;;;;;;22.27;15.40;;;;;;;0.75;100.00;102471.56;695057;28;1910;-61
2023/01/23 00:41:14;;;;;;;24.27;15.63;;;;;;;0.77;100.00;102475.16;691609;28;1237;-60
2023/01/23 00:41:34;;;;;;;23.98;15.27;;;;;;;0.73;100.00;102471.47;692650;28;1258;-63
2023/01/23 00:41:55;;;;;;;23.20;15.33;;;;;;;0.75;100.00;102476.72;692190;28;1258;-63
2023/01/23 00:42:16;;;;;;;23.77;15.50;;;;;;;0.77;100.00;102476.03;688703;28;1246;-62
2023/01/23 00:42:36;;;;;;;22.40;14.93;;;;;;;0.74;100.00;102477.53;690763;28;982;-60
2023/01/23 00:42:57;;;;;;;22.17;14.67;;;;;;;0.75;100.00;102477.63;688732;28;4370;-63
2023/01/23 00:43:17;;;;;;;23.55;15.77;;;;;;;0.81;100.00;102477.13;692433;28;1188;-60
2023/01/23 00:43:40;;;;;;;24.27;16.17;;;;;;;0.88;100.00;102479.28;689969;28;1254;-60
2023/01/23 00:44:00;;;;;;;24.30;15.50;;;;;;;0.89;100.00;102481.09;690569;28;1220;-60
2023/01/23 00:44:21;;;;;;;23.42;15.07;;;;;;;0.89;100.00;102482.75;694559;28;1519;-62
2023/01/23 00:44:41;;;;;;;21.80;14.73;;;;;;;0.91;100.00;102474.31;694743;28;1154;-60
2023/01/23 00:45:02;;;;;;;22.95;15.02;;;;;;;0.98;100.00;102476.53;692396;28;1270;-60
2023/01/23 00:45:22;;;;;;;23.90;15.17;;;;;;;0.97;100.00;102479.88;691892;28;1040;-59
2023/01/23 00:45:42;;;;;;;22.75;15.55;;;;;;;1.00;100.00;102474.94;692439;28;4439;-60
2023/01/23 00:46:03;;;;;;;23.10;14.97;;;;;;;1.04;100.00;102481.19;690646;28;1201;-61
2023/01/23 00:46:24;;;;;;;23.08;14.48;;;;;;;0.99;100.00;102488.59;690266;28;1263;-60
2023/01/23 00:46:46;;;;;;;23.85;15.15;;;;;;;1.01;100.00;102480.94;692524;28;1298;-60
2023/01/23 00:47:07;;;;;;;22.00;14.23;;;;;;;1.13;100.00;102481.72;692265;28;1414;-61
2023/01/23 00:47:28;;;;;;;23.10;15.18;;;;;;;1.11;100.00;102472.13;689905;28;1398;-61
2023/01/23 00:47:48;;;;;;;24.17;14.98;;;;;;;1.16;100.00;102481.03;690304;28;1490;-60
2023/01/23 00:48:08;;;;;;;23.17;14.30;;;;;;;1.19;100.00;102478.66;689300;28;1390;-60
2023/01/23 00:48:29;;;;;;;21.35;14.15;;;;;;;1.15;100.00;102481.81;689896;28;1214;-61
2023/01/23 00:48:50;;;;;;;21.48;14.23;;;;;;;1.10;100.00;102480.66;691647;28;4293;-62
2023/01/23 00:49:12;;;;;;;23.05;14.90;;;;;;;1.06;100.00;102481.25;694719;28;1079;-61
2023/01/23 00:49:32;;;;;;;22.70;14.70;;;;;;;1.00;100.00;102474.94;694309;28;1241;-61
2023/01/23 00:49:54;;;;;;;23.58;15.38;;;;;;;1.05;100.00;102479.47;695935;28;1079;-60
2023/01/23 00:50:14;;;;;;;22.17;14.90;;;;;;;1.02;100.00;102478.50;694553;28;1263;-61
2023/01/23 00:50:35;;;;;;;21.77;14.68;;;;;;;1.05;100.00;102475.19;694074;28;1300;-61
2023/01/23 00:50:57;;;;;;;22.77;14.65;;;;;;;1.04;100.00;102473.44;694944;28;1158;-62
2023/01/23 00:51:17;;;;;;;22.23;14.63;;;;;;;1.18;100.00;102482.03;695641;28;1508;-61
2023/01/23 00:51:37;;;;;;;21.48;14.18;;;;;;;1.15;100.00;102476.66;695236;28;1264;-61
2023/01/23 00:51:58;;;;;;;22.67;14.13;;;;;;;1.13;100.00;102479.16;694424;28;4224;-60
2023/01/23 00:52:21;;;;;;;22.48;14.52;;;;;;;1.21;100.00;102482.22;694085;28;1250;-62
2023/01/23 00:52:41;;;;;;;24.43;15.90;;;;;;;1.19;100.00;102474.41;695321;28;1009;-61
2023/01/23 00:53:01;;;;;;;23.40;15.10;;;;;;;1.17;100.00;102480.25;694876;28;1259;-61
2023/01/23 00:53:22;;;;;;;21.70;15.10;;;;;;;1.17;100.00;102478.56;698511;28;1252;-60
2023/01/23 00:53:43;;;;;;;22.50;14.80;;;;;;;1.25;100.00;102471.31;700110;28;1208;-60
2023/01/23 00:54:04;;;;;;;22.25;14.55;;;;;;;1.26;100.00;102486.00;696472;28;1693;-60
2023/01/23 00:54:25;;;;;;;22.30;14.48;;;;;;;1.24;100.00;102477.25;696542;28;1218;-59
2023/01/23 00:54:45;;;;;;;22.90;14.40;;;;;;;1.17;100.00;102477.69;693793;28;4452;-61
2023/01/23 00:55:06;;;;;;;23.48;14.73;;;;;;;1.12;100.00;102471.34;692619;28;1329;-60
2023/01/23 00:55:27;;;;;;;22.75;15.00;;;;;;;1.02;100.00;102472.44;694525;28;1277;-62
2023/01/23 00:55:47;;;;;;;22.50;14.63;;;;;;;0.97;100.00;102474.72;694881;28;1347;-61
2023/01/23 00:56:08;;;;;;;23.37;15.00;;;;;;;0.90;100.00;102470.00;694893;28;1252;-60
2023/01/23 00:56:29;;;;;;;23.95;14.80;;;;;;;0.94;100.00;102482.28;692093;28;1243;-60
2023/01/23 00:56:49;;;;;;;22.95;14.60;;;;;;;0.95;100.00;102472.84;692497;28;1460;-61
2023/01/23 00:57:09;;;;;;;22.23;14.50;;;;;;;0.98;100.00;102467.88;689384;28;1796;-60
2023/01/23 00:57:30;;;;;;;23.07;15.00;;;;;;;0.95;100.00;102471.16;689483;28;1445;-60
2023/01/23 00:57:50;;;;;;;23.50;14.93;;;;;;;0.92;100.00;102472.66;689533;28;4522;-60
2023/01/23 00:58:11;;;;;;;22.70;14.90;;;;;;;0.92;100.00;102476.13;689067;28;1525;-61
2023/01/23 00:58:31;;;;;;;21.88;14.73;;;;;;;0.88;100.00;102469.00;692106;28;1274;-61
2023/01/23 00:58:52;;;;;;;22.48;14.68;;;;;;;0.90;100.00;102480.28;690735;28;1353;-60
2023/01/23 00:59:12;;;;;;;23.63;15.03;;;;;;;0.89;100.00;102475.94;692905;28;1030;-59
2023/01/23 00:59:32;;;;;;;23.42;14.73;;;;;;;0.96;100.00;102470.38;690620;28;1310;-60
2023/01/23 00:59:53;;;;;;;22.03;14.37;;;;;;;0.94;100.00;102474.56;688140;28;1109;-62
2023/01/23 01:00:14;;;;;;;22.15;14.63;;;;;;;0.91;100.00;102479.47;690832;28;1171;-62
2023/01/23 01:00:35;;;;;;;22.25;14.85;;;;;;;1.01;100.00;102470.66;685654;28;1331;-60
2023/01/23 01:00:56;;;;;;;22.70;14.77;;;;;;;1.00;100.00;102481.78;688664;28;4602;-60
2023/01/23 01:01:17;;;;;;;22.27;15.00;;;;;;;0.97;100.00;102474.72;689981;28;1216;-60
2023/01/23 01:01:37;;;;;;;22.60;15.07;;;;;;;0.93;100.00;102475.34;689023;28;1224;-61
2023/01/23 01:01:58;;;;;;;23.02;15.13;;;;;;;0.92;100.00;102478.69;689311;28;1297;-61
2023/01/23 01:02:18;;;;;;;22.70;14.73;;;;;;;0.90;100.00;102477.72;688858;28;1224;-60
2023/01/23 01:02:40;;;;;;;22.08;14.30;;;;;;;0.87;100.00;102476.63;687735;28;1272;-61
2023/01/23 01:03:01;;;;;;;23.03;14.43;;;;;;;0.83;100.00;102476.44;690621;28;1306;-59
2023/01/23 01:03:23;;;;;;;24.23;15.30;;;;;;;0.81;100.00;102475.44;693324;28;1052;-60
2023/01/23 01:03:44;;;;;;;21.45;14.52;;;;;;;0.82;100.00;102479.78;691469;28;4386;-61
2023/01/23 01:04:05;;;;;;;20.80;14.20;;;;;;;0.81;100.00;102471.97;691374;28;1398;-61
2023/01/23 01:04:25;;;;;;;21.95;14.82;;;;;;;0.79;100.00;102473.53;690359;28;1488;-62
2023/01/23 01:04:46;;;;;;;23.73;15.50;;;;;;;0.76;100.00;102470.78;691009;28;1406;-61
2023/01/23 01:05:07;;;;;;;22.55;14.93;;;;;;;0.72;100.00;102476.53;688887;28;1259;-60
2023/01/23 01:05:27;;;;;;;23.88;15.10;;;;;;;0.77;100.00;102480.28;691177;28;1267;-60
2023/01/23 01:05:47;;;;;;;24.23;14.80;;;;;;;0.85;100.00;102472.25;692670;28;1305;-61
2023/01/23 01:06:09;;;;;;;23.20;15.20;;;;;;;0.85;100.00;102479.97;695399;28;1432;-61
2023/01/23 01:06:29;;;;;;;22.30;15.07;;;;;;;0.85;100.00;102482.56;695141;28;1385;-61
2023/01/23 01:06:50;;;;;;;22.58;14.65;;;;;;;0.84;100.00;102479.88;694715;28;4417;-62
2023/01/23 01:07:11;;;;;;;22.23;14.82;;;;;;;0.89;100.00;102486.22;692166;28;1316;-61
2023/01/23 01:07:31;;;;;;;22.17;15.17;;;;;;;0.92;100.00;102481.28;692801;28;1698;-60
2023/01/23 01:07:52;;;;;;;22.75;15.23;;;;;;;0.87;100.00;102480.06;687504;28;1252;-60
2023/01/23 01:08:14;;;;;;;25.08;15.52;;;;;;;0.85;100.00;102486.81;689227;28;1822;-60
2023/01/23 01:08:34;;;;;;;22.73;14.17;;;;;;;0.82;100.00;102482.38;691525;28;1303;-60
2023/01/23 01:08:58;;;;;;;21.52;13.80;;;;;;;0.77;100.00;102486.31;689692;28;1553;-60
2023/01/23 01:09:19;;;;;;;22.05;14.25;;;;;;;0.74;100.00;102487.81;692093;28;1394;-63
2023/01/23 01:09:39;;;;;;;22.80;14.88;;;;;;;0.71;100.00;102485.03;692489;28;4338;-62
2023/01/23 01:10:00;;;;;;;22.43;14.73;;;;;;;0.66;100.00;102477.03;693896;28;1219;-61
2023/01/23 01:10:20;;;;;;;21.73;14.85;;;;;;;0.65;100.00;102477.81;695094;28;1242;-61
2023/01/23 01:10:41;;;;;;;23.53;15.50;;;;;;;0.64;100.00;102482.06;694606;28;1408;-60
2023/01/23 01:11:02;;;;;;;22.10;15.10;;;;;;;0.71;100.00;102483.38;695749;28;1535;-62
2023/01/23 01:11:25;;;;;;;22.17;14.40;;;;;;;0.76;100.00;102484.56;697105;28;1226;-61
2023/01/23 01:11:45;;;;;;;22.65;14.90;;;;;;;0.82;100.00;102484.06;696711;28;1245;-61
2023/01/23 01:12:05;;;;;;;22.53;14.63;;;;;;;0.79;100.00;102484.75;696724;28;1250;-61
2023/01/23 01:12:26;;;;;;;21.55;14.82;;;;;;;0.77;100.00;102490.59;698070;28;1416;-61
2023/01/23 01:12:46;;;;;;;21.10;14.30;;;;;;;0.76;100.00;102492.28;699601;28;4282;-61
2023/01/23 01:13:08;;;;;;;21.98;14.32;;;;;;;0.74;100.00;102492.97;696422;28;1404;-61
2023/01/23 01:13:29;;;;;;;22.25;14.27;;;;;;;0.71;100.00;102488.50;695152;28;1483;-61
2023/01/23 01:13:50;;;;;;;22.83;14.30;;;;;;;0.70;100.00;102488.41;695221;28;1484;-61
2023/01/23 01:14:11;;;;;;;23.85;14.13;;;;;;;0.68;100.00;102486.63;689704;28;1190;-60
2023/01/23 01:14:32;;;;;;;20.90;13.75;;;;;;;0.66;100.00;102485.63;687204;28;1250;-61
2023/01/23 01:14:52;;;;;;;21.90;14.10;;;;;;;0.62;100.00;102493.97;688699;28;1244;-60
2023/01/23 01:15:13;;;;;;;21.90;14.30;;;;;;;0.59;100.00;102491.16;688472;28;1231;-60
2023/01/23 01:15:34;;;;;;;21.83;14.73;;;;;;;0.57;100.00;102487.63;689071;28;1099;-61
2023/01/23 01:15:55;;;;;;;23.27;15.07;;;;;;;0.57;100.00;102494.44;688889;28;4496;-63
2023/01/23 01:16:15;;;;;;;23.03;15.30;;;;;;;0.57;100.00;102492.75;691826;28;3479;-60
2023/01/23 01:16:36;;;;;;;22.58;14.98;;;;;;;0.56;100.00;102490.09;692442;28;1263;-61
2023/01/23 01:16:57;;;;;;;22.50;14.35;;;;;;;0.54;100.00;102490.00;692346;28;1734;-60
2023/01/23 01:17:17;;;;;;;22.58;14.73;;;;;;;0.53;100.00;102488.22;688546;28;1084;-61
2023/01/23 01:17:39;;;;;;;22.50;14.93;;;;;;;0.52;100.00;102500.97;689723;28;1256;-62
2023/01/23 01:17:59;;;;;;;23.92;14.95;;;;;;;0.49;100.00;102492.25;689955;28;1964;-60
2023/01/23 01:18:21;;;;;;;23.20;14.53;;;;;;;0.48;100.00;102493.03;691864;28;1235;-60
2023/01/23 01:18:42;;;;;;;22.58;14.70;;;;;;;0.52;100.00;102496.72;691771;28;4462;-60
2023/01/23 01:19:04;;;;;;;22.73;14.90;;;;;;;0.56;100.00;102492.66;689131;28;1278;-60
2023/01/23 01:19:24;;;;;;;22.58;14.60;;;;;;;0.56;100.00;102496.13;692559;28;1167;-61
2023/01/23 01:19:44;;;;;;;21.43;14.17;;;;;;;0.56;100.00;102501.28;692621;28;1325;-60
2023/01/23 01:20:06;;;;;;;20.20;14.18;;;;;;;0.55;100.00;102493.44;694927;28;1254;-61
2023/01/23 01:20:27;;;;;;;21.20;14.07;;;;;;;0.53;100.00;102495.00;692520;28;1259;-61
2023/01/23 01:20:49;;;;;;;21.58;14.05;;;;;;;0.52;100.00;102498.41;690336;28;1281;-62
2023/01/23 01:21:13;;;;;;;21.58;14.38;;;;;;;0.51;100.00;102497.50;692153;28;1926;-61
2023/01/23 01:21:34;;;;;;;23.25;14.35;;;;;;;0.50;100.00;102488.91;690566;28;1311;-63
2023/01/23 01:21:55;;;;;;;22.80;14.33;;;;;;;0.49;100.00;102489.69;692100;28;4788;-61
2023/01/23 01:22:15;;;;;;;22.25;14.50;;;;;;;0.46;100.00;102498.91;693354;28;1401;-60
2023/01/23 01:22:36;;;;;;;21.93;14.27;;;;;;;0.48;100.00;102495.59;696175;28;1234;-60
2023/01/23 01:22:59;;;;;;;21.87;14.47;;;;;;;0.50;100.00;102500.88;697690;28;1189;-61
2023/01/23 01:23:20;;;;;;;20.60;14.27;;;;;;;0.52;100.00;102496.72;694871;28;1291;-61
2023/01/23 01:23:41;;;;;;;20.88;14.40;;;;;;;0.50;100.00;102499.19;694988;28;2006;-64
2023/01/23 01:24:01;;;;;;;22.42;14.93;;;;;;;0.49;100.00;102499.09;692397;28;1266;-61
2023/01/23 01:24:22;;;;;;;23.30;14.83;;;;;;;0.49;100.00;102504.25;692106;28;1405;-60
2023/01/23 01:24:42;;;;;;;22.90;14.87;;;;;;;0.47;100.00;102501.56;688853;28;4376;-61
2023/01/23 01:25:03;;;;;;;22.70;14.75;;;;;;;0.47;100.00;102496.41;689323;28;1267;-60
2023/01/23 01:25:24;;;;;;;21.53;14.63;;;;;;;0.46;100.00;102506.63;689417;28;1215;-62
2023/01/23 01:25:45;;;;;;;21.30;14.45;;;;;;;0.46;100.00;102504.91;689341;28;1210;-61
2023/01/23 01:26:06;;;;;;;21.48;14.68;;;;;;;0.46;100.00;102501.47;688556;28;1391;-61
2023/01/23 01:26:26;;;;;;;21.88;14.50;;;;;;;0.43;100.00;102507.31;689192;28;1375;-61
2023/01/23 01:26:46;;;;;;;22.52;14.23;;;;;;;0.41;100.00;102495.13;689209;28;1532;-63
2023/01/23 01:27:07;;;;;;;22.60;14.30;;;;;;;0.40;100.00;102498.47;687551;28;1351;-61
2023/01/23 01:27:28;;;;;;;24.25;15.13;;;;;;;0.39;100.00;102496.69;692176;28;1396;-60
2023/01/23 01:27:48;;;;;;;22.93;14.50;;;;;;;0.39;100.00;102504.41;692008;28;4361;-61
2023/01/23 01:28:08;;;;;;;21.85;14.23;;;;;;;0.46;100.00;102499.78;694722;28;1289;-63
2023/01/23 01:28:31;;;;;;;21.33;14.40;;;;;;;0.48;100.00;102498.19;695292;28;1352;-61
2023/01/23 01:28:52;;;;;;;21.60;14.85;;;;;;;0.49;100.00;102496.53;692888;28;1242;-61
2023/01/23 01:29:12;;;;;;;21.53;15.00;;;;;;;0.49;100.00;102497.41;692086;28;1104;-61
2023/01/23 01:29:37;;;;;;;21.52;14.52;;;;;;;0.49;100.00;102499.09;691904;28;1154;-62
2023/01/23 01:29:58;;;;;;;22.48;14.70;;;;;;;0.47;100.00;102501.56;693337;28;1083;-62
2023/01/23 01:30:20;;;;;;;21.88;14.63;;;;;;;0.50;100.00;102496.63;691614;28;1526;-61
2023/01/23 01:30:41;;;;;;;21.52;14.40;;;;;;;0.52;100.00;102495.84;692123;28;4374;-60
2023/01/23 01:31:07;;;;;;;22.63;14.83;;;;;;;0.52;100.00;102494.13;694552;28;1219;-61
2023/01/23 01:31:28;;;;;;;22.40;14.20;;;;;;;0.50;100.00;102499.19;695791;28;1413;-62
2023/01/23 01:31:48;;;;;;;22.73;14.17;;;;;;;0.50;100.00;102500.88;696530;28;1447;-61
2023/01/23 01:32:09;;;;;;;21.63;14.35;;;;;;;0.49;100.00;102497.41;694688;28;1306;-63
2023/01/23 01:32:29;;;;;;;21.67;14.55;;;;;;;0.49;100.00;102499.09;696874;28;1454;-61
2023/01/23 01:32:49;;;;;;;23.20;15.30;;;;;;;0.49;100.00;102499.09;694235;28;1459;-61
2023/01/23 01:33:10;;;;;;;23.57;14.97;;;;;;;0.49;100.00;102499.97;694684;28;1452;-60
2023/01/23 01:33:33;;;;;;;22.65;15.02;;;;;;;0.53;100.00;102495.94;694557;28;1123;-64
2023/01/23 01:33:53;;;;;;;22.23;14.75;;;;;;;0.61;100.00;102493.84;692947;28;4342;-61
2023/01/23 01:34:14;;;;;;;22.00;14.60;;;;;;;0.58;100.00;102494.56;692212;28;1229;-60
2023/01/23 01:34:34;;;;;;;22.20;14.65;;;;;;;0.60;100.00;102497.22;692058;28;1111;-61
2023/01/23 01:34:54;;;;;;;21.80;14.57;;;;;;;0.63;100.00;102500.00;694299;28;1270;-60
2023/01/23 01:35:15;;;;;;;22.05;14.40;;;;;;;0.62;100.00;102493.97;694837;28;1187;-62
2023/01/23 01:35:38;;;;;;;22.07;14.40;;;;;;;0.61;100.00;102497.31;694968;28;1138;-61
2023/01/23 01:35:59;;;;;;;22.88;14.95;;;;;;;0.63;100.00;102497.41;695184;28;1119;-61
2023/01/23 01:36:22;;;;;;;22.20;15.23;;;;;;;0.63;100.00;102497.41;697634;28;1119;-61
2023/01/23 01:36:43;;;;;;;23.05;14.93;;;;;;;0.62;100.00;102496.53;696970;28;4262;-60
2023/01/23 01:37:03;;;;;;;22.85;14.90;;;;;;;0.61;100.00;102498.97;698797;28;1245;-61
2023/01/23 01:37:25;;;;;;;22.88;15.18;;;;;;;0.58;100.00;102493.66;697723;28;1256;-63
2023/01/23 01:37:45;;;;;;;23.15;15.23;;;;;;;0.60;100.00;102502.38;695911;28;1250;-60
2023/01/23 01:38:07;;;;;;;24.00;15.47;;;;;;;0.61;100.00;102496.41;696456;28;1288;-61